Portada
METAR-TAF:

METAR-TAF

Aeropuertos :

Castres, Francia

latitud: 43-33-25N, longitud: 2-17-21E, altitud: 239 m

Observación

El informe se hizo hace 20 minutos, a las 23:00 UTC
Viento 18 kt del este-sureste
Temperatura 12°C
Humedad 71%
Presión 1016 hPa
Visibilidad 10 km o más
Cielo nuboso a una altura de 2900 ft
Cielo cubierto a una altura de 3400 ft

METAR: LFCK 312300Z AUTO 11018KT 9999 BKN029 OVC034 12/07 Q1016

Hora: 01:20 (23:20 UTC)


TAF: falta

Observaciones y pronósticos meteorológicos de más de 4000 aeropuertos (mensajes METAR y TAF).

Los puntos amarillos y rojos representan las estaciones disponibles.

Ponga el ratón en el punto deseado para ver el nombre de la estación.

Haga clic para ver las observaciones y los pronósticos meteorológicos.

Para cambiar el mapa : haga clic en los botones verdes con una cruz de color negro para hacer un zoom, en el botón verde con un guión para alejar o en las flechas verdes para mapas adyacentes.


METAR-TAF: